createdAt,value
2024-04-14T00:01:11.726Z,5.94
2024-04-14T00:03:38.601Z,5.79
2024-04-14T00:06:05.902Z,5.83
2024-04-14T00:08:32.847Z,5.92
2024-04-14T00:10:59.850Z,5.78
2024-04-14T00:13:26.811Z,5.94
2024-04-14T00:15:59.958Z,6.34
2024-04-14T00:18:29.679Z,6.33
2024-04-14T00:20:57.141Z,6.50
2024-04-14T00:23:23.976Z,6.30
2024-04-14T00:25:50.844Z,6.64
2024-04-14T00:28:17.641Z,6.95
2024-04-14T00:30:44.548Z,7.22
2024-04-14T00:33:11.428Z,8.27
2024-04-14T00:35:41.609Z,7.55
2024-04-14T00:38:08.936Z,7.47
2024-04-14T00:40:35.758Z,8.02
2024-04-14T00:43:02.660Z,8.37
2024-04-14T00:45:29.558Z,8.10
2024-04-14T00:47:56.574Z,8.64
2024-04-14T00:50:23.946Z,8.48
2024-04-14T00:52:53.966Z,8.92
2024-04-14T00:55:20.784Z,8.77
2024-04-14T00:57:48.169Z,8.59
2024-04-14T01:00:15.115Z,8.39
2024-04-14T01:02:42.629Z,8.64
2024-04-14T01:05:09.504Z,8.68
2024-04-14T01:07:36.297Z,8.37
2024-04-14T01:10:06.468Z,8.11
2024-04-14T01:12:33.353Z,8.22
2024-04-14T01:15:00.237Z,7.93
2024-04-14T01:17:27.179Z,8.02
2024-04-14T01:19:54.069Z,7.79
2024-04-14T01:22:20.887Z,7.39
2024-04-14T01:24:48.132Z,6.98
2024-04-14T01:27:17.615Z,7.26
2024-04-14T01:29:44.510Z,6.91
2024-04-14T01:32:11.392Z,6.84
2024-04-14T01:34:38.269Z,6.95
2024-04-14T01:37:05.068Z,7.03
2024-04-14T01:39:31.923Z,6.67
2024-04-14T01:41:58.715Z,6.67
2024-04-14T01:44:28.154Z,6.56
2024-04-14T01:46:55.421Z,6.84
2024-04-14T01:49:22.339Z,7.06
2024-04-14T01:51:49.340Z,6.60
2024-04-14T01:54:16.237Z,6.89
2024-04-14T01:56:43.009Z,7.32
2024-04-14T01:59:09.875Z,7.05
2024-04-14T02:01:39.547Z,7.09
2024-04-14T02:04:06.610Z,7.43
2024-04-14T02:06:33.514Z,7.30
2024-04-14T02:09:00.403Z,6.82
2024-04-14T02:11:27.272Z,6.73
2024-04-14T02:13:54.167Z,6.85
2024-04-14T02:16:20.974Z,6.98
2024-04-14T02:18:50.442Z,6.84
2024-04-14T02:21:17.479Z,6.83
2024-04-14T02:23:44.295Z,6.94
2024-04-14T02:26:11.154Z,6.82
2024-04-14T02:28:37.948Z,6.80
2024-04-14T02:31:05.002Z,6.90
2024-04-14T02:33:31.876Z,6.86
2024-04-14T02:36:02.026Z,6.63
2024-04-14T02:38:28.996Z,6.67
2024-04-14T02:40:56.983Z,6.63
2024-04-14T02:43:23.817Z,7.15
2024-04-14T02:45:50.657Z,7.58
2024-04-14T02:48:17.567Z,7.29
2024-04-14T02:50:44.429Z,7.39
2024-04-14T02:53:13.841Z,7.76
2024-04-14T02:55:40.731Z,7.55
2024-04-14T02:58:08.295Z,7.34
2024-04-14T03:00:35.208Z,7.71
2024-04-14T03:03:02.231Z,8.00
2024-04-14T03:05:29.224Z,8.69
2024-04-14T03:07:56.045Z,8.06
2024-04-14T03:10:25.482Z,8.13
2024-04-14T03:12:52.327Z,7.99
2024-04-14T03:15:19.271Z,7.93
2024-04-14T03:17:46.141Z,7.47
2024-04-14T03:20:13.023Z,7.69
2024-04-14T03:22:40.244Z,7.48
2024-04-14T03:25:08.188Z,7.51
2024-04-14T03:27:37.860Z,7.40
2024-04-14T03:30:05.380Z,7.83
2024-04-14T03:32:32.290Z,7.07
2024-04-14T03:35:01.927Z,7.16
2024-04-14T03:37:28.794Z,6.98
2024-04-14T03:39:55.623Z,6.16
2024-04-14T03:42:22.655Z,6.51
2024-04-14T03:44:52.118Z,6.36
2024-04-14T03:47:18.958Z,6.22
2024-04-14T03:49:45.824Z,6.61
2024-04-14T03:52:13.273Z,6.24
2024-04-14T03:54:40.070Z,6.33
2024-04-14T03:57:06.869Z,6.78
2024-04-14T03:59:35.196Z,6.63
2024-04-14T04:02:06.981Z,6.57
2024-04-14T04:04:33.906Z,6.60
2024-04-14T04:07:00.740Z,6.76
2024-04-14T04:09:27.620Z,7.06
2024-04-14T04:11:54.671Z,7.01
2024-04-14T04:14:21.631Z,7.19
2024-04-14T04:16:50.638Z,6.68
2024-04-14T04:19:26.116Z,6.81
2024-04-14T04:21:54.596Z,7.05
2024-04-14T04:24:24.991Z,7.29
2024-04-14T04:26:52.432Z,7.18
2024-04-14T04:29:19.236Z,6.86
2024-04-14T04:31:46.021Z,6.80
2024-04-14T04:34:12.866Z,6.86
2024-04-14T04:36:44.976Z,7.41
2024-04-14T04:39:11.854Z,6.81
2024-04-14T04:41:38.817Z,6.85
2024-04-14T04:44:05.653Z,7.12
2024-04-14T04:46:32.478Z,7.35
2024-04-14T04:48:59.371Z,6.71
2024-04-14T04:51:26.208Z,6.53
2024-04-14T04:53:55.689Z,6.73
2024-04-14T04:56:22.664Z,7.02
2024-04-14T04:58:49.466Z,7.18
2024-04-14T05:01:16.363Z,7.06
2024-04-14T05:03:43.291Z,7.17
2024-04-14T05:06:10.172Z,6.75
2024-04-14T05:08:36.974Z,6.77
2024-04-14T05:11:06.619Z,6.85
2024-04-14T05:13:33.446Z,7.22
2024-04-14T05:16:00.387Z,7.26
2024-04-14T05:18:27.481Z,7.44
2024-04-14T05:20:54.389Z,7.16
2024-04-14T05:23:21.213Z,7.10
2024-04-14T05:25:49.188Z,7.19
2024-04-14T05:28:18.674Z,7.79
2024-04-14T05:30:46.868Z,7.70
2024-04-14T05:33:13.745Z,7.75
2024-04-14T05:35:40.578Z,7.12
2024-04-14T05:38:07.373Z,7.18
2024-04-14T05:40:34.697Z,7.45
2024-04-14T05:43:01.548Z,7.63
2024-04-14T05:45:31.132Z,7.77
2024-04-14T05:47:58.209Z,7.70
2024-04-14T05:50:25.136Z,7.74
2024-04-14T05:52:52.079Z,7.27
2024-04-14T05:55:18.888Z,7.00
2024-04-14T05:57:45.809Z,6.86
2024-04-14T06:00:12.904Z,6.75
2024-04-14T06:02:45.916Z,6.64
2024-04-14T06:05:12.764Z,7.67
2024-04-14T06:07:39.610Z,7.18
2024-04-14T06:10:07.267Z,7.52
2024-04-14T06:12:34.167Z,6.88
2024-04-14T06:15:01.122Z,7.33
2024-04-14T06:17:28.086Z,7.04
2024-04-14T06:19:58.011Z,6.73
2024-04-14T06:22:24.958Z,7.20
2024-04-14T06:24:51.827Z,7.87
2024-04-14T06:27:18.726Z,8.22
2024-04-14T06:29:45.819Z,7.63
2024-04-14T06:32:12.669Z,7.74
2024-04-14T06:34:39.534Z,7.03
2024-04-14T06:37:09.061Z,7.19
2024-04-14T06:39:35.945Z,7.06
2024-04-14T06:42:02.929Z,7.12
2024-04-14T06:44:29.721Z,6.83
2024-04-14T06:46:56.803Z,7.13
2024-04-14T06:49:23.673Z,6.59
2024-04-14T06:51:50.524Z,6.71
2024-04-14T06:54:20.034Z,6.76
2024-04-14T06:56:46.882Z,6.25
2024-04-14T06:59:13.707Z,6.18
2024-04-14T07:01:40.671Z,6.03
2024-04-14T07:04:07.743Z,6.18
2024-04-14T07:06:34.709Z,5.77
2024-04-14T07:09:01.688Z,5.70
2024-04-14T07:11:31.278Z,5.71
2024-04-14T07:13:58.186Z,5.68
2024-04-14T07:16:25.063Z,5.63
2024-04-14T07:18:51.926Z,5.04
2024-04-14T07:21:18.768Z,4.99
2024-04-14T07:23:45.564Z,4.96
2024-04-14T07:26:12.424Z,5.02
2024-04-14T07:28:41.878Z,5.07
2024-04-14T07:31:08.877Z,5.51
2024-04-14T07:33:35.883Z,5.59
2024-04-14T07:36:02.813Z,5.53
2024-04-14T07:38:29.589Z,5.72
2024-04-14T07:40:56.450Z,5.28
2024-04-14T07:43:23.373Z,5.35
2024-04-14T07:45:52.863Z,5.52
2024-04-14T07:48:20.211Z,5.24
2024-04-14T07:50:47.184Z,5.25
2024-04-14T07:53:14.125Z,5.21
2024-04-14T07:55:40.992Z,5.32
2024-04-14T07:58:07.987Z,5.22
2024-04-14T08:00:35.153Z,5.13
2024-04-14T08:03:05.015Z,4.81
2024-04-14T08:05:34.624Z,5.04
2024-04-14T08:08:02.492Z,4.84
2024-04-14T08:10:29.400Z,4.90
2024-04-14T08:13:01.505Z,4.89
2024-04-14T08:15:29.887Z,5.12
2024-04-14T08:17:56.800Z,5.15
2024-04-14T08:20:26.258Z,5.12
2024-04-14T08:22:54.263Z,4.87
2024-04-14T08:25:21.286Z,5.11
2024-04-14T08:27:48.387Z,4.42
2024-04-14T08:30:15.295Z,4.30
2024-04-14T08:32:42.820Z,4.36
2024-04-14T08:35:09.746Z,4.01
2024-04-14T08:37:39.298Z,3.85
2024-04-14T08:40:07.228Z,4.30
2024-04-14T08:42:34.418Z,4.48
2024-04-14T08:45:01.359Z,4.49
2024-04-14T08:47:28.157Z,4.10
2024-04-14T08:49:55.064Z,4.30
2024-04-14T08:52:21.891Z,4.11
2024-04-14T08:54:51.336Z,4.04
2024-04-14T08:57:18.192Z,3.49
2024-04-14T08:59:45.045Z,3.64
2024-04-14T09:02:12.009Z,3.81
2024-04-14T09:04:40.128Z,3.83
2024-04-14T09:07:07.267Z,3.87
2024-04-14T09:09:34.118Z,3.53
2024-04-14T09:12:03.958Z,3.25
2024-04-14T09:14:30.836Z,3.39
2024-04-14T09:16:57.772Z,3.27
2024-04-14T09:19:24.612Z,3.13
2024-04-14T09:21:51.439Z,3.28
2024-04-14T09:24:18.331Z,3.16
2024-04-14T09:26:45.221Z,3.24
2024-04-14T09:29:14.737Z,3.21
2024-04-14T09:31:41.968Z,3.40
2024-04-14T09:34:08.896Z,3.23
2024-04-14T09:36:35.885Z,3.31
2024-04-14T09:39:03.283Z,3.38
2024-04-14T09:41:30.172Z,3.04
2024-04-14T09:43:57.057Z,3.25
2024-04-14T09:46:26.547Z,3.40
2024-04-14T09:48:53.536Z,3.17
2024-04-14T09:51:20.431Z,3.26
2024-04-14T09:53:47.378Z,3.41
2024-04-14T09:56:14.169Z,3.38
2024-04-14T09:58:41.046Z,3.46
2024-04-14T10:01:09.795Z,3.18
2024-04-14T10:03:39.629Z,3.35
2024-04-14T10:06:06.660Z,3.31
2024-04-14T10:08:34.158Z,3.41
2024-04-14T10:11:02.319Z,5.51
2024-04-14T10:13:29.390Z,3.85
2024-04-14T10:15:56.276Z,4.12
2024-04-14T10:18:25.041Z,3.70
2024-04-14T10:20:54.571Z,3.20
2024-04-14T10:23:21.566Z,3.15
2024-04-14T10:25:48.921Z,3.42
2024-04-14T10:28:16.891Z,3.60
2024-04-14T10:30:43.806Z,3.71
2024-04-14T10:33:18.823Z,3.29
2024-04-14T10:35:45.949Z,4.13
2024-04-14T10:38:22.235Z,4.07
2024-04-14T10:40:49.567Z,3.79
2024-04-14T10:43:16.481Z,3.87
2024-04-14T10:45:43.449Z,3.32
2024-04-14T10:48:10.336Z,3.36
2024-04-14T10:50:38.937Z,3.09
2024-04-14T10:53:05.769Z,3.21
2024-04-14T10:55:35.208Z,3.33
2024-04-14T10:58:02.183Z,3.30
2024-04-14T11:00:29.474Z,2.99
2024-04-14T11:02:56.474Z,2.87
2024-04-14T11:05:23.874Z,3.73
2024-04-14T11:07:50.873Z,4.09
2024-04-14T11:10:17.797Z,3.50
2024-04-14T11:12:47.209Z,3.22
2024-04-14T11:15:15.173Z,3.20
2024-04-14T11:17:42.645Z,3.12
2024-04-14T11:20:13.328Z,3.37
2024-04-14T11:22:40.178Z,3.08
2024-04-14T11:25:08.807Z,3.09
2024-04-14T11:27:35.660Z,2.90
2024-04-14T11:30:05.868Z,2.91
2024-04-14T11:32:36.477Z,2.97
2024-04-14T11:35:03.504Z,2.76
2024-04-14T11:37:30.573Z,2.70
2024-04-14T11:39:57.484Z,3.02
2024-04-14T11:42:24.389Z,3.22
2024-04-14T11:44:51.198Z,3.04
2024-04-14T11:47:20.815Z,3.17
2024-04-14T11:49:47.697Z,2.99
2024-04-14T11:52:14.598Z,3.55
2024-04-14T11:54:41.613Z,3.34
2024-04-14T11:57:08.454Z,4.48
2024-04-14T11:59:35.258Z,3.19
2024-04-14T12:02:02.059Z,4.52
2024-04-14T12:04:31.548Z,3.08
2024-04-14T12:06:58.438Z,2.86
2024-04-14T12:09:25.305Z,3.03
2024-04-14T12:11:52.122Z,2.93
2024-04-14T12:14:18.970Z,2.69
2024-04-14T12:16:45.800Z,3.23
2024-04-14T12:19:12.636Z,2.96
2024-04-14T12:21:42.343Z,3.20
2024-04-14T12:24:11.479Z,3.00
2024-04-14T12:26:38.849Z,2.98
2024-04-14T12:29:05.757Z,3.21
2024-04-14T12:31:32.645Z,3.29
2024-04-14T12:33:59.693Z,3.54
2024-04-14T12:36:26.684Z,3.11
2024-04-14T12:38:56.105Z,3.30
2024-04-14T12:41:22.958Z,3.39
2024-04-14T12:43:49.808Z,3.74
2024-04-14T12:46:16.923Z,3.63
2024-04-14T12:48:43.852Z,4.15
2024-04-14T12:51:10.724Z,4.14
2024-04-14T12:53:37.656Z,3.65
2024-04-14T12:56:07.576Z,3.32
2024-04-14T12:58:34.472Z,3.59
2024-04-14T13:01:01.378Z,3.67
2024-04-14T13:03:28.434Z,3.51
2024-04-14T13:05:56.233Z,3.46
2024-04-14T13:08:23.757Z,3.37
2024-04-14T13:10:50.705Z,3.16
2024-04-14T13:13:20.422Z,3.15
2024-04-14T13:15:47.394Z,3.20
2024-04-14T13:18:14.324Z,3.31
2024-04-14T13:20:41.119Z,3.31
2024-04-14T13:23:07.932Z,3.27
2024-04-14T13:25:34.738Z,3.25
2024-04-14T13:28:01.691Z,3.66
2024-04-14T13:30:31.329Z,3.63
2024-04-14T13:32:58.319Z,3.69
2024-04-14T13:35:25.305Z,3.31
2024-04-14T13:37:52.129Z,3.59
2024-04-14T13:40:19.037Z,3.53
2024-04-14T13:42:46.025Z,3.03
2024-04-14T13:45:12.949Z,3.34
2024-04-14T13:47:42.514Z,3.97
2024-04-14T13:50:09.416Z,3.61
2024-04-14T13:52:36.346Z,3.23
2024-04-14T13:55:04.143Z,3.26
2024-04-14T13:57:31.904Z,3.52
2024-04-14T13:59:58.756Z,3.34
2024-04-14T14:02:25.669Z,3.41
2024-04-14T14:04:55.315Z,3.49
2024-04-14T14:07:22.905Z,3.09
2024-04-14T14:09:50.017Z,3.09
2024-04-14T14:12:16.911Z,3.25
2024-04-14T14:14:43.877Z,2.85
2024-04-14T14:17:10.727Z,3.21
2024-04-14T14:19:37.615Z,3.08
2024-04-14T14:22:07.297Z,3.45
2024-04-14T14:24:36.551Z,3.24
2024-04-14T14:27:04.663Z,3.26
2024-04-14T14:29:31.510Z,3.07
2024-04-14T14:31:58.347Z,3.34
2024-04-14T14:34:25.681Z,3.30
2024-04-14T14:36:52.652Z,3.42
2024-04-14T14:39:22.871Z,3.32
2024-04-14T14:41:49.738Z,3.30
2024-04-14T14:44:16.572Z,2.91
2024-04-14T14:46:43.493Z,3.16
2024-04-14T14:49:10.602Z,3.32
2024-04-14T14:51:38.302Z,3.08
2024-04-14T14:54:07.148Z,3.24
2024-04-14T14:56:37.644Z,2.99
2024-04-14T14:59:04.590Z,3.26
2024-04-14T15:01:31.643Z,3.21
2024-04-14T15:03:58.648Z,3.04
2024-04-14T15:06:25.666Z,3.09
2024-04-14T15:08:52.554Z,2.91
2024-04-14T15:11:19.904Z,3.34
2024-04-14T15:13:49.756Z,3.01
2024-04-14T15:16:16.768Z,3.12
2024-04-14T15:18:43.853Z,3.42
2024-04-14T15:21:10.845Z,3.28
2024-04-14T15:23:37.692Z,2.98
2024-04-14T15:26:05.106Z,3.16
2024-04-14T15:28:32.382Z,3.36
2024-04-14T15:31:02.344Z,3.28
2024-04-14T15:33:29.252Z,3.35
2024-04-14T15:35:56.048Z,3.85
2024-04-14T15:38:23.045Z,3.58
2024-04-14T15:40:49.917Z,3.57
2024-04-14T15:43:17.353Z,3.59
2024-04-14T15:45:44.421Z,3.76
2024-04-14T15:48:14.020Z,3.81
2024-04-14T15:50:40.916Z,3.82
2024-04-14T15:53:07.832Z,3.76
2024-04-14T15:55:37.266Z,3.65
2024-04-14T15:58:04.405Z,3.78
2024-04-14T16:00:31.299Z,3.43
2024-04-14T16:02:58.218Z,3.58
2024-04-14T16:05:27.713Z,4.89
2024-04-14T16:07:54.580Z,4.31
2024-04-14T16:10:21.497Z,4.23
2024-04-14T16:12:48.468Z,3.89
2024-04-14T16:15:15.266Z,3.63
2024-04-14T16:17:42.305Z,4.43
2024-04-14T16:20:09.464Z,3.56
2024-04-14T16:22:40.267Z,3.50
2024-04-14T16:25:09.983Z,3.53
2024-04-14T16:27:37.193Z,3.42
2024-04-14T16:30:04.875Z,3.72
2024-04-14T16:32:34.522Z,3.56
2024-04-14T16:35:01.420Z,3.63
2024-04-14T16:37:28.344Z,3.39
2024-04-14T16:39:57.936Z,3.10
2024-04-14T16:42:24.744Z,3.10
2024-04-14T16:44:51.776Z,3.41
2024-04-14T16:47:18.763Z,3.43
2024-04-14T16:49:45.589Z,3.40
2024-04-14T16:52:12.632Z,3.42
2024-04-14T16:54:39.518Z,3.34
2024-04-14T16:57:10.447Z,3.40
2024-04-14T16:59:37.580Z,3.46
2024-04-14T17:02:04.688Z,3.54
2024-04-14T17:04:31.759Z,3.35
2024-04-14T17:06:58.848Z,3.59
2024-04-14T17:09:25.675Z,3.37
2024-04-14T17:11:52.464Z,3.40
2024-04-14T17:14:21.913Z,3.43
2024-04-14T17:16:48.747Z,3.37
2024-04-14T17:19:15.657Z,3.17
2024-04-14T17:21:42.517Z,3.56
2024-04-14T17:24:09.474Z,3.49
2024-04-14T17:26:36.363Z,3.73
2024-04-14T17:29:03.166Z,3.93
2024-04-14T17:31:32.593Z,3.78
2024-04-14T17:33:59.507Z,3.87
2024-04-14T17:36:26.324Z,3.73
2024-04-14T17:38:53.154Z,3.81
2024-04-14T17:41:19.979Z,4.06
2024-04-14T17:43:46.935Z,3.84
2024-04-14T17:46:14.565Z,3.96
2024-04-14T17:48:44.067Z,3.91
2024-04-14T17:51:10.879Z,4.46
2024-04-14T17:53:37.702Z,4.05
2024-04-14T17:56:04.783Z,3.45
2024-04-14T17:58:31.625Z,3.22
2024-04-14T18:00:58.598Z,3.35
2024-04-14T18:03:26.615Z,3.33
2024-04-14T18:05:56.272Z,3.29
2024-04-14T18:08:23.161Z,3.32
2024-04-14T18:10:49.950Z,3.50
2024-04-14T18:13:17.126Z,3.86
2024-04-14T18:15:43.937Z,3.69
2024-04-14T18:18:10.863Z,3.48
2024-04-14T18:20:37.722Z,3.43
2024-04-14T18:23:07.207Z,3.26
2024-04-14T18:25:34.087Z,3.20
2024-04-14T18:28:00.966Z,3.44
2024-04-14T18:30:27.854Z,3.33
2024-04-14T18:32:54.758Z,3.57
2024-04-14T18:35:21.610Z,3.83
2024-04-14T18:37:48.500Z,4.37
2024-04-14T18:40:18.398Z,4.49
2024-04-14T18:42:45.272Z,4.79
2024-04-14T18:45:12.279Z,4.13
2024-04-14T18:47:39.175Z,4.40
2024-04-14T18:50:07.335Z,4.19
2024-04-14T18:52:34.441Z,3.97
2024-04-14T18:55:01.349Z,4.03
2024-04-14T18:57:31.007Z,3.87
2024-04-14T18:59:57.944Z,4.05
2024-04-14T19:02:25.378Z,4.48
2024-04-14T19:04:52.552Z,4.54
2024-04-14T19:07:19.464Z,4.56
2024-04-14T19:09:46.808Z,4.71
2024-04-14T19:12:13.913Z,4.55
2024-04-14T19:14:43.487Z,4.65
2024-04-14T19:17:10.325Z,4.15
2024-04-14T19:19:37.205Z,4.30
2024-04-14T19:22:05.025Z,4.11
2024-04-14T19:24:32.072Z,3.84
2024-04-14T19:26:59.292Z,3.79
2024-04-14T19:29:26.154Z,4.02
2024-04-14T19:31:56.170Z,3.67
2024-04-14T19:34:23.192Z,3.80
2024-04-14T19:36:50.070Z,3.82
2024-04-14T19:39:16.988Z,4.38
2024-04-14T19:41:43.977Z,4.83
2024-04-14T19:44:11.029Z,5.04
2024-04-14T19:46:41.771Z,4.92
2024-04-14T19:49:12.108Z,5.12
2024-04-14T19:51:39.144Z,5.75
2024-04-14T19:54:06.115Z,5.15
2024-04-14T19:56:33.041Z,5.24
2024-04-14T19:59:00.004Z,5.46
2024-04-14T20:01:26.994Z,5.98
2024-04-14T20:03:53.995Z,6.31
2024-04-14T20:06:23.540Z,6.22
2024-04-14T20:08:50.852Z,8.10
2024-04-14T20:11:17.970Z,7.59
2024-04-14T20:13:44.843Z,7.10
2024-04-14T20:16:11.921Z,7.17
2024-04-14T20:18:39.310Z,6.99
2024-04-14T20:21:06.385Z,7.01
2024-04-14T20:23:36.216Z,6.90
2024-04-14T20:26:03.949Z,7.02
2024-04-14T20:28:30.887Z,6.41
2024-04-14T20:30:57.813Z,6.35
2024-04-14T20:33:24.686Z,6.79
2024-04-14T20:35:56.372Z,7.38
2024-04-14T20:38:23.234Z,7.71
2024-04-14T20:40:56.045Z,7.71
2024-04-14T20:43:22.866Z,7.85
2024-04-14T20:45:49.782Z,8.40
2024-04-14T20:48:16.728Z,7.75
2024-04-14T20:50:43.580Z,7.70
2024-04-14T20:53:10.393Z,7.66
2024-04-14T20:55:37.205Z,7.52
2024-04-14T20:58:06.781Z,7.36
2024-04-14T21:00:37.004Z,7.43
2024-04-14T21:03:04.537Z,8.11
2024-04-14T21:05:31.369Z,7.78
2024-04-14T21:07:58.258Z,7.69
2024-04-14T21:10:25.145Z,6.65
2024-04-14T21:12:52.112Z,6.78
2024-04-14T21:15:24.384Z,6.02
2024-04-14T21:17:51.515Z,5.75
2024-04-14T21:20:18.402Z,5.57
2024-04-14T21:22:46.694Z,6.10
2024-04-14T21:25:13.604Z,6.63
2024-04-14T21:27:40.523Z,7.30
2024-04-14T21:30:08.246Z,7.00
2024-04-14T21:32:37.772Z,6.25
2024-04-14T21:35:05.077Z,6.49
2024-04-14T21:37:31.932Z,6.49
2024-04-14T21:39:58.992Z,6.50
2024-04-14T21:42:25.887Z,6.04
2024-04-14T21:44:55.704Z,5.56
2024-04-14T21:47:24.171Z,5.46
2024-04-14T21:49:54.398Z,5.04
2024-04-14T21:52:21.280Z,5.39
2024-04-14T21:54:51.113Z,4.91
2024-04-14T21:57:17.999Z,4.91
2024-04-14T21:59:44.929Z,5.13
2024-04-14T22:02:11.796Z,5.70
2024-04-14T22:04:38.680Z,5.42
2024-04-14T22:07:08.443Z,5.32
2024-04-14T22:09:35.270Z,5.31
2024-04-14T22:12:02.099Z,5.35
2024-04-14T22:14:29.048Z,4.96
2024-04-14T22:16:55.996Z,5.23
2024-04-14T22:19:22.990Z,4.85
2024-04-14T22:21:49.977Z,4.99
2024-04-14T22:24:19.566Z,4.66
2024-04-14T22:26:46.500Z,4.26
2024-04-14T22:29:13.805Z,4.12
2024-04-14T22:31:40.652Z,4.48
2024-04-14T22:34:08.513Z,4.79
2024-04-14T22:36:35.351Z,4.63
2024-04-14T22:39:02.325Z,5.16
2024-04-14T22:41:31.783Z,4.98
2024-04-14T22:43:58.657Z,4.81
2024-04-14T22:46:25.494Z,4.77
2024-04-14T22:48:52.331Z,4.69
2024-04-14T22:51:19.172Z,4.63
2024-04-14T22:53:45.965Z,5.23
2024-04-14T22:56:12.804Z,6.08
2024-04-14T22:58:42.244Z,5.35
2024-04-14T23:01:09.156Z,5.09
2024-04-14T23:03:36.068Z,5.41
2024-04-14T23:06:03.487Z,5.34
2024-04-14T23:08:30.968Z,5.43
2024-04-14T23:10:57.758Z,4.89
2024-04-14T23:13:24.579Z,4.72
2024-04-14T23:15:54.096Z,4.78
2024-04-14T23:18:21.137Z,4.81
2024-04-14T23:20:48.044Z,5.02
2024-04-14T23:23:14.852Z,4.17
2024-04-14T23:25:41.661Z,4.49
2024-04-14T23:28:08.522Z,4.32
2024-04-14T23:30:35.353Z,4.36
2024-04-14T23:33:05.232Z,4.23
2024-04-14T23:35:32.103Z,4.24
2024-04-14T23:37:58.933Z,4.61
2024-04-14T23:40:25.843Z,4.41
2024-04-14T23:42:52.747Z,4.44
2024-04-14T23:45:19.622Z,4.51
2024-04-14T23:47:46.600Z,4.27
2024-04-14T23:50:16.254Z,3.63
2024-04-14T23:52:43.105Z,3.68
2024-04-14T23:55:09.980Z,3.56
2024-04-14T23:57:36.835Z,4.02
